createdAt,value
2022-12-19T00:02:21.754Z,84.07
2022-12-19T00:04:52.772Z,85.57
2022-12-19T00:07:25.214Z,95.18
2022-12-19T00:09:58.792Z,100.85
2022-12-19T00:12:30.148Z,93.35
2022-12-19T00:15:01.964Z,90.25
2022-12-19T00:17:33.632Z,95.47
2022-12-19T00:20:08.457Z,98.53
2022-12-19T00:22:41.029Z,92.18
2022-12-19T00:25:14.793Z,87.35
2022-12-19T00:31:34.491Z,81.28
2022-12-19T00:34:43.660Z,83.38
2022-12-19T00:38:06.821Z,91.53
2022-12-19T00:40:54.813Z,88.57
2022-12-19T00:43:44.271Z,79.55
2022-12-19T00:51:00.707Z,80.53
2022-12-19T00:57:59.963Z,83.18
2022-12-19T01:02:01.149Z,94.93
2022-12-19T01:05:34.375Z,90.03
2022-12-19T01:08:57.779Z,87.90
2022-12-19T01:15:51.817Z,84.40
2022-12-19T01:19:08.177Z,77.28
2022-12-19T01:22:39.507Z,75.85
2022-12-19T01:25:40.114Z,59.35
2022-12-19T01:29:23.030Z,60.80
2022-12-19T01:32:39.645Z,76.07
2022-12-19T01:36:02.933Z,74.20
2022-12-19T01:39:15.301Z,93.63
2022-12-19T01:44:05.499Z,77.72
2022-12-19T01:51:10.066Z,84.05
2022-12-19T01:54:07.761Z,81.53
2022-12-19T01:56:46.490Z,72.35
2022-12-19T01:59:31.625Z,85.78
2022-12-19T02:02:18.272Z,91.20
2022-12-19T02:05:13.853Z,83.40
2022-12-19T02:08:04.193Z,81.10
2022-12-19T02:10:55.995Z,73.68
2022-12-19T02:13:36.671Z,82.28
2022-12-19T02:16:28.993Z,67.47
2022-12-19T02:19:30.520Z,64.93
2022-12-19T02:22:19.860Z,71.03
2022-12-19T02:25:35.236Z,92.38
2022-12-19T02:28:44.666Z,74.10
2022-12-19T02:31:39.853Z,74.43
2022-12-19T02:34:19.634Z,69.00
2022-12-19T02:37:05.853Z,72.95
2022-12-19T02:39:45.053Z,63.15
2022-12-19T02:42:27.598Z,55.53
2022-12-19T02:45:10.854Z,62.40
2022-12-19T02:47:51.873Z,62.72
2022-12-19T02:50:50.385Z,65.63
2022-12-19T02:53:34.911Z,65.15
2022-12-19T02:56:32.978Z,62.10
2022-12-19T02:59:45.786Z,69.53
2022-12-19T03:02:35.429Z,63.50
2022-12-19T03:05:21.120Z,63.38
2022-12-19T03:08:05.807Z,53.70
2022-12-19T03:11:04.821Z,56.05
2022-12-19T03:16:42.145Z,66.10
2022-12-19T03:19:39.063Z,82.68
2022-12-19T03:22:22.932Z,61.88
2022-12-19T03:24:54.471Z,52.17
2022-12-19T03:27:41.468Z,51.63
2022-12-19T03:30:17.634Z,55.95
2022-12-19T03:33:03.394Z,55.25
2022-12-19T03:35:47.435Z,51.85
2022-12-19T03:38:34.278Z,77.47
2022-12-19T03:41:14.224Z,65.93
2022-12-19T03:43:50.532Z,57.03
2022-12-19T03:46:30.444Z,63.05
2022-12-19T03:49:21.825Z,52.97
2022-12-19T03:52:16.742Z,51.85
2022-12-19T03:55:04.498Z,64.50
2022-12-19T03:57:57.439Z,49.95
2022-12-19T04:00:41.591Z,55.03
2022-12-19T04:03:26.588Z,52.90
2022-12-19T04:06:06.266Z,64.97
2022-12-19T04:08:44.287Z,84.68
2022-12-19T04:11:26.710Z,64.75
2022-12-19T04:14:18.463Z,65.63
2022-12-19T04:17:00.622Z,82.88
2022-12-19T04:19:44.400Z,55.13
2022-12-19T04:22:30.642Z,69.00
2022-12-19T04:25:06.639Z,59.97
2022-12-19T04:27:50.906Z,44.53
2022-12-19T04:30:38.730Z,65.18
2022-12-19T04:33:12.706Z,59.05
2022-12-19T04:35:48.295Z,54.75
2022-12-19T04:38:24.595Z,63.00
2022-12-19T04:40:55.759Z,65.80
2022-12-19T04:43:35.407Z,88.82
2022-12-19T04:46:12.194Z,68.65
2022-12-19T04:48:51.770Z,57.47
2022-12-19T04:51:38.984Z,52.13
2022-12-19T04:54:24.040Z,68.38
2022-12-19T04:57:00.169Z,99.40
2022-12-19T04:59:36.820Z,77.22
2022-12-19T05:02:17.009Z,67.70
2022-12-19T05:04:58.853Z,73.22
2022-12-19T05:07:37.092Z,67.28
2022-12-19T05:10:14.998Z,112.25
2022-12-19T05:12:48.461Z,76.32
2022-12-19T05:15:23.319Z,71.50
2022-12-19T05:18:09.773Z,92.88
2022-12-19T05:20:43.630Z,82.55
2022-12-19T05:23:22.284Z,103.05
2022-12-19T05:25:59.667Z,89.00
2022-12-19T05:28:43.717Z,79.50
2022-12-19T05:31:25.258Z,75.93
2022-12-19T05:34:05.132Z,91.18
2022-12-19T05:36:50.997Z,81.90
2022-12-19T05:39:28.620Z,87.38
2022-12-19T05:42:12.546Z,76.53
2022-12-19T05:44:48.523Z,90.47
2022-12-19T05:47:26.085Z,90.07
2022-12-19T05:50:08.660Z,87.35
2022-12-19T05:52:49.512Z,84.60
2022-12-19T05:55:23.847Z,99.15
2022-12-19T05:58:02.312Z,101.78
2022-12-19T06:00:54.025Z,74.47
2022-12-19T06:03:41.770Z,80.20
2022-12-19T06:06:24.929Z,105.90
2022-12-19T06:09:04.863Z,98.53
2022-12-19T06:12:17.399Z,96.10
2022-12-19T06:15:18.448Z,98.72
2022-12-19T06:18:21.122Z,78.95
2022-12-19T06:21:33.599Z,98.85
2022-12-19T06:24:33.784Z,116.20
2022-12-19T06:27:32.667Z,156.73
2022-12-19T06:30:17.367Z,231.23
2022-12-19T06:32:58.142Z,177.18
2022-12-19T06:35:52.054Z,221.80
2022-12-19T06:38:48.545Z,124.22
2022-12-19T06:42:23.165Z,144.18
2022-12-19T06:45:32.265Z,103.65
2022-12-19T06:49:14.827Z,144.30
2022-12-19T06:57:02.107Z,91.00
2022-12-19T06:59:45.759Z,83.90
2022-12-19T07:07:13.418Z,82.07
2022-12-19T07:18:09.835Z,258.88
2022-12-19T07:21:32.587Z,181.23
2022-12-19T07:28:40.395Z,79.00
2022-12-19T07:35:57.648Z,86.72
2022-12-19T07:38:37.799Z,60.85
2022-12-19T07:41:38.635Z,71.05
2022-12-19T07:44:48.877Z,74.07
2022-12-19T07:48:25.965Z,92.05
2022-12-19T07:51:48.244Z,96.45
2022-12-19T07:55:21.746Z,73.22
2022-12-19T08:00:08.084Z,94.55
2022-12-19T08:01:57.828Z,163.07
2022-12-19T08:04:52.516Z,92.43
2022-12-19T08:07:56.406Z,107.15
2022-12-19T08:10:58.874Z,113.25
2022-12-19T08:13:58.100Z,109.97
2022-12-19T08:26:55.815Z,107.00
2022-12-19T08:30:15.901Z,122.35
2022-12-19T08:33:30.508Z,76.03
2022-12-19T08:36:33.556Z,88.05
2022-12-19T08:39:30.596Z,86.68
2022-12-19T08:43:35.008Z,89.30
2022-12-19T08:47:32.183Z,80.80
2022-12-19T08:51:31.918Z,84.43
2022-12-19T08:59:01.038Z,90.75
2022-12-19T09:02:15.590Z,100.95
2022-12-19T09:06:05.128Z,92.88
2022-12-19T09:08:35.850Z,94.03
2022-12-19T09:11:47.462Z,98.00
2022-12-19T09:15:29.689Z,119.65
2022-12-19T09:18:51.162Z,104.05
2022-12-19T09:22:42.870Z,100.93
2022-12-19T09:25:32.248Z,97.68
2022-12-19T09:28:53.443Z,106.18
2022-12-19T09:32:28.983Z,106.13
2022-12-19T09:36:23.887Z,97.95
2022-12-19T09:40:09.105Z,110.00
2022-12-19T09:43:43.505Z,108.07
2022-12-19T09:47:16.165Z,92.32
2022-12-19T09:55:42.313Z,91.18
2022-12-19T10:08:07.688Z,88.18
2022-12-19T12:49:06.410Z,88.88
2022-12-19T12:51:53.012Z,97.47
2022-12-19T12:54:45.663Z,122.22
2022-12-19T13:57:27.603Z,87.22
2022-12-19T14:00:04.839Z,78.50
2022-12-19T14:12:18.288Z,100.43
2022-12-19T14:54:04.574Z,144.63
2022-12-19T14:54:16.334Z,117.78
2022-12-19T15:34:35.433Z,100.00
2022-12-19T15:40:10.888Z,183.73
2022-12-19T15:43:02.564Z,200.70
2022-12-19T15:45:46.393Z,112.70
2022-12-19T15:48:28.811Z,93.80
2022-12-19T15:51:06.714Z,100.75
2022-12-19T15:53:51.108Z,113.85
2022-12-19T15:56:52.774Z,163.80
2022-12-19T15:59:38.026Z,189.90
2022-12-19T16:02:56.438Z,152.45
2022-12-19T16:05:30.428Z,147.23
2022-12-19T16:08:15.542Z,143.38
2022-12-19T16:11:01.089Z,109.60
2022-12-19T16:13:36.343Z,116.63
2022-12-19T16:16:15.291Z,164.63
2022-12-19T16:19:06.616Z,178.50
2022-12-19T16:21:41.749Z,156.70
2022-12-19T16:24:32.988Z,135.35
2022-12-19T16:28:59.582Z,130.77
2022-12-19T16:34:34.256Z,119.13
2022-12-19T16:37:14.043Z,90.18
2022-12-19T16:39:54.361Z,95.35
2022-12-19T16:48:57.104Z,103.07
2022-12-19T16:51:36.902Z,117.32
2022-12-19T16:54:18.507Z,99.88
2022-12-19T16:57:01.085Z,122.80
2022-12-19T16:59:40.513Z,127.95
2022-12-19T17:02:56.486Z,134.43
2022-12-19T17:05:35.755Z,116.75
2022-12-19T17:08:24.904Z,125.65
2022-12-19T17:11:01.309Z,110.95
2022-12-19T17:13:41.407Z,103.38
2022-12-19T17:16:24.496Z,126.47
2022-12-19T17:19:23.270Z,127.05
2022-12-19T17:22:10.097Z,165.85
2022-12-19T17:24:55.883Z,144.77
2022-12-19T17:27:36.426Z,202.98
2022-12-19T17:30:16.858Z,174.52
2022-12-19T17:33:13.957Z,141.85
2022-12-19T17:39:19.957Z,143.68
2022-12-19T17:41:57.532Z,330.98
2022-12-19T17:44:38.166Z,190.27
2022-12-19T17:47:22.953Z,164.55
2022-12-19T17:50:30.443Z,108.82
2022-12-19T17:54:08.764Z,127.68
2022-12-19T17:56:07.749Z,160.90
2022-12-19T17:58:58.901Z,101.47
2022-12-19T18:01:58.726Z,89.50
2022-12-19T18:04:40.143Z,97.60
2022-12-19T18:07:25.780Z,105.30
2022-12-19T18:10:13.079Z,106.10
2022-12-19T18:13:08.881Z,96.35
2022-12-19T18:15:46.453Z,98.32
2022-12-19T18:18:38.956Z,96.63
2022-12-19T18:21:25.637Z,81.25
2022-12-19T18:24:08.912Z,85.35
2022-12-19T18:27:16.906Z,85.82
2022-12-19T18:30:02.087Z,125.68
2022-12-19T18:32:47.027Z,98.53
2022-12-19T18:35:32.932Z,110.47
2022-12-19T18:38:53.780Z,171.95
2022-12-19T18:41:55.626Z,136.63
2022-12-19T18:44:59.197Z,224.68
2022-12-19T18:47:51.700Z,160.48
2022-12-19T18:50:51.960Z,100.55
2022-12-19T18:53:43.999Z,105.30
2022-12-19T18:56:16.661Z,113.43
2022-12-19T18:59:10.577Z,136.93
2022-12-19T19:01:59.365Z,116.60
2022-12-19T19:04:52.768Z,174.20
2022-12-19T19:07:55.909Z,210.38
2022-12-19T19:10:44.584Z,125.90
2022-12-19T19:13:37.892Z,159.52
2022-12-19T19:19:37.848Z,121.07
2022-12-19T19:22:22.509Z,128.75
2022-12-19T19:25:19.161Z,125.50
2022-12-19T19:28:07.383Z,116.25
2022-12-19T19:31:27.911Z,115.30
2022-12-19T19:34:08.304Z,115.55
2022-12-19T19:37:05.874Z,142.10
2022-12-19T19:39:52.098Z,116.80
2022-12-19T19:42:47.337Z,156.80
2022-12-19T19:46:27.086Z,165.57
2022-12-19T19:49:37.020Z,157.15
2022-12-19T19:53:00.105Z,239.20
2022-12-19T19:56:02.594Z,193.27
2022-12-19T19:58:49.976Z,189.77
2022-12-19T20:06:07.982Z,210.35
2022-12-19T20:08:50.571Z,140.02
2022-12-19T20:11:40.604Z,163.60
2022-12-19T20:14:16.561Z,120.30
2022-12-19T20:17:11.955Z,116.05
2022-12-19T20:19:55.291Z,98.65
2022-12-19T20:22:36.765Z,95.15
2022-12-19T20:25:14.541Z,124.00
2022-12-19T20:27:52.242Z,148.00
2022-12-19T20:30:43.845Z,107.40
2022-12-19T20:33:30.476Z,87.43
2022-12-19T20:36:19.068Z,131.27
2022-12-19T20:38:56.165Z,97.38
2022-12-19T20:41:58.719Z,103.78
2022-12-19T20:44:51.946Z,91.00
2022-12-19T20:48:01.706Z,83.85
2022-12-19T20:50:39.723Z,98.43
2022-12-19T20:53:16.971Z,103.32
2022-12-19T20:56:08.813Z,76.82
2022-12-19T20:58:46.491Z,86.13
2022-12-19T21:01:21.669Z,89.28
2022-12-19T21:04:08.117Z,93.45
2022-12-19T21:06:41.605Z,96.70
2022-12-19T21:09:13.253Z,94.45
2022-12-19T21:11:52.764Z,75.90
2022-12-19T21:14:29.585Z,72.32
2022-12-19T21:17:08.724Z,63.95
2022-12-19T21:19:48.386Z,70.88
2022-12-19T21:22:47.525Z,73.20
2022-12-19T21:28:01.244Z,78.47
2022-12-19T21:30:40.361Z,69.35
2022-12-19T21:33:23.219Z,70.30
2022-12-19T21:36:19.246Z,68.60
2022-12-19T21:38:56.300Z,73.00
2022-12-19T21:41:29.358Z,69.20
2022-12-19T21:44:06.990Z,66.80
2022-12-19T21:46:50.196Z,65.97
2022-12-19T21:49:27.379Z,76.53
2022-12-19T21:52:10.588Z,71.65
2022-12-19T21:54:45.622Z,69.93
2022-12-19T21:57:23.686Z,69.78
2022-12-19T21:59:59.592Z,66.32
2022-12-19T22:02:33.585Z,69.60
2022-12-19T22:05:07.134Z,84.60
2022-12-19T22:07:39.261Z,80.38
2022-12-19T22:10:30.139Z,70.53
2022-12-19T22:13:04.882Z,64.45
2022-12-19T22:15:48.352Z,61.83
2022-12-19T22:18:26.798Z,70.15
2022-12-19T22:21:06.665Z,70.03
2022-12-19T22:23:39.545Z,68.70
2022-12-19T22:26:16.044Z,60.13
2022-12-19T22:28:49.951Z,67.53
2022-12-19T22:31:29.349Z,65.65
2022-12-19T22:34:42.897Z,65.53
2022-12-19T22:37:19.270Z,68.25
2022-12-19T22:39:56.343Z,66.00
2022-12-19T22:42:31.574Z,67.80
2022-12-19T22:45:06.577Z,64.07
2022-12-19T22:47:46.847Z,58.60
2022-12-19T22:50:19.965Z,54.75
2022-12-19T22:52:56.875Z,62.63
2022-12-19T22:55:36.943Z,63.55
2022-12-19T22:58:11.430Z,65.38
2022-12-19T23:00:50.928Z,65.50
2022-12-19T23:05:58.812Z,64.30
2022-12-19T23:08:34.827Z,66.68
2022-12-19T23:11:09.869Z,62.13
2022-12-19T23:13:43.982Z,67.10
2022-12-19T23:16:18.221Z,67.47
2022-12-19T23:18:58.366Z,74.10
2022-12-19T23:21:47.089Z,74.65
2022-12-19T23:24:21.795Z,70.13
2022-12-19T23:26:56.922Z,72.15
2022-12-19T23:29:30.388Z,63.58
2022-12-19T23:32:12.829Z,68.30
2022-12-19T23:34:49.071Z,70.03
2022-12-19T23:37:25.944Z,76.47
2022-12-19T23:39:57.817Z,71.15
2022-12-19T23:42:35.385Z,85.00
2022-12-19T23:45:13.336Z,79.53
2022-12-19T23:47:46.996Z,80.18
2022-12-19T23:50:28.412Z,72.57
2022-12-19T23:53:03.677Z,69.95
2022-12-19T23:55:43.410Z,70.38
2022-12-19T23:58:24.018Z,71.65
